Mississagi — CFG8050 — position and weather

sailwx.info

Track history (hours):
 
Tides and Currents Weather Stations Pressure Air Temp Water Temp Dewpoint Dewpoint Depression Visibility Wind Speed Wind Dir Waves Ship Positions

Mississagi

Last reported at 2014-Dec-19 02:20 UTC. Time now 2014-Dec-20 01:33 UTC.
Position N 45°17' W 086°22'.

Length 189 m; draft 7.2 m.

Type: Cargo ship. MMSI: 316004940.

Date/timePositionNaut miles runAvg speedWind from/ knotsBaromVisibWave heightAir tempDewpointWater temp
2014-Dec-19 02:20N 45°17' W 086°22'1011.4
2014-Dec-19 01:28N 45°26' W 086°16'1111.4
2014-Dec-19 00:33N 45°36' W 086°10'1110.8
2014-Dec-18 23:33N 45°44' W 085°59'1111.5
2014-Dec-18 22:33N 45°49' W 085°45'1110.9
2014-Dec-18 21:33N 45°53' W 085°30'1111.2
2014-Dec-18 20:33N 45°52' W 085°14'1111.3
2014-Dec-18 19:33N 45°50' W 084°58'1211.7
2014-Dec-18 18:33N 45°48' W 084°42'1111.4
2014-Dec-18 17:33N 45°42' W 084°28'1110.8
2014-Dec-18 16:33N 45°40' W 084°13'1111.0
2014-Dec-18 15:33N 45°35' W 083°59'10 0.2
2014-Dec-16 23:33N 45°39' W 084°11'1111.4
2014-Dec-16 22:33N 45°42' W 084°27'1211.9
2014-Dec-16 21:33N 45°48' W 084°41'1211.6
2014-Dec-16 20:33N 45°50' W 084°58'9 8.6
2014-Dec-16 19:33N 45°46' W 085°09'1211.6
2014-Dec-16 18:33N 45°36' W 085°19'1212.0
2014-Dec-16 17:33N 45°27' W 085°29'1212.1
2014-Dec-16 16:33N 45°17' W 085°39'1212.1
2014-Dec-16 15:33N 45°07' W 085°50'1211.8
2014-Dec-16 14:33N 44°59' W 086°01'56 1.7
2014-Dec-15 06:22N 44°08' W 086°32'6210.7
2014-Dec-15 00:33N 45°04' W 085°54'1111.4
2014-Dec-14 23:33N 45°13' W 085°45'1111.4
2014-Dec-14 22:33N 45°23' W 085°35'1111.3
2014-Dec-14 21:33N 45°32' W 085°26'1111.4
2014-Dec-14 20:33N 45°41' W 085°16'10 9.9
2014-Dec-14 19:33N 45°49' W 085°08'1110.7
2014-Dec-14 18:33N 45°49' W 084°53'1111.4
2014-Dec-14 17:33N 45°51' W 084°37'1211.6
2014-Dec-14 16:33N 45°51' W 084°20'1111.2
2014-Dec-14 15:33N 45°49' W 084°04'1211.4
2014-Dec-14 14:31N 45°44' W 083°49'1010.6
2014-Dec-14 13:33N 45°45' W 083°34'1510.3
2014-Dec-14 12:03N 45°52' W 083°15'3 0.7
2014-Dec-14 08:19N 45°55' W 083°13'0 0.0
2014-Dec-14 05:29N 45°55' W 083°13'  
Track history (hours):
 
Tides and Currents Weather Stations Pressure Air Temp Water Temp Dewpoint Dewpoint Depression Visibility Wind Speed Wind Dir Waves Ship Positions

Mississagi

Last reported at 2014-Dec-19 02:20 UTC. Time now 2014-Dec-20 01:33 UTC.
Position N 45°17' W 086°22'.

Length 189 m; draft 7.2 m.

Type: Cargo ship. MMSI: 316004940.

Date/timePositionNaut miles runAvg speedWind from/ knotsBaromVisibWave heightAir tempDewpointWater temp
2014-Dec-19 02:20N 45°17' W 086°22'1011.4
2014-Dec-19 01:28N 45°26' W 086°16'1111.4
2014-Dec-19 00:33N 45°36' W 086°10'1110.8
2014-Dec-18 23:33N 45°44' W 085°59'1111.5
2014-Dec-18 22:33N 45°49' W 085°45'1110.9
2014-Dec-18 21:33N 45°53' W 085°30'1111.2
2014-Dec-18 20:33N 45°52' W 085°14'1111.3
2014-Dec-18 19:33N 45°50' W 084°58'1211.7
2014-Dec-18 18:33N 45°48' W 084°42'1111.4
2014-Dec-18 17:33N 45°42' W 084°28'1110.8
2014-Dec-18 16:33N 45°40' W 084°13'1111.0
2014-Dec-18 15:33N 45°35' W 083°59'10 0.2
2014-Dec-16 23:33N 45°39' W 084°11'1111.4
2014-Dec-16 22:33N 45°42' W 084°27'1211.9
2014-Dec-16 21:33N 45°48' W 084°41'1211.6
2014-Dec-16 20:33N 45°50' W 084°58'9 8.6
2014-Dec-16 19:33N 45°46' W 085°09'1211.6
2014-Dec-16 18:33N 45°36' W 085°19'1212.0
2014-Dec-16 17:33N 45°27' W 085°29'1212.1
2014-Dec-16 16:33N 45°17' W 085°39'1212.1
2014-Dec-16 15:33N 45°07' W 085°50'1211.8
2014-Dec-16 14:33N 44°59' W 086°01'56 1.7
2014-Dec-15 06:22N 44°08' W 086°32'6210.7
2014-Dec-15 00:33N 45°04' W 085°54'1111.4
2014-Dec-14 23:33N 45°13' W 085°45'1111.4
2014-Dec-14 22:33N 45°23' W 085°35'1111.3
2014-Dec-14 21:33N 45°32' W 085°26'1111.4
2014-Dec-14 20:33N 45°41' W 085°16'10 9.9
2014-Dec-14 19:33N 45°49' W 085°08'1110.7
2014-Dec-14 18:33N 45°49' W 084°53'1111.4
2014-Dec-14 17:33N 45°51' W 084°37'1211.6
2014-Dec-14 16:33N 45°51' W 084°20'1111.2
2014-Dec-14 15:33N 45°49' W 084°04'1211.4
2014-Dec-14 14:31N 45°44' W 083°49'1010.6
2014-Dec-14 13:33N 45°45' W 083°34'1510.3
2014-Dec-14 12:03N 45°52' W 083°15'3 0.7
2014-Dec-14 08:19N 45°55' W 083°13'0 0.0
2014-Dec-14 05:29N 45°55' W 083°13'  

Dump ship's entire track history